createdAt,value
2018-08-10T00:00:38.967Z,99.90
2018-08-10T00:03:09.569Z,99.90
2018-08-10T00:05:39.309Z,99.90
2018-08-10T00:08:08.781Z,99.90
2018-08-10T00:10:37.461Z,99.90
2018-08-10T00:13:06.025Z,99.90
2018-08-10T00:15:34.565Z,99.90
2018-08-10T00:18:03.135Z,99.90
2018-08-10T00:20:31.674Z,99.90
2018-08-10T00:23:01.812Z,99.90
2018-08-10T00:25:30.486Z,99.90
2018-08-10T00:27:58.989Z,99.90
2018-08-10T00:30:27.518Z,99.90
2018-08-10T00:32:56.112Z,99.90
2018-08-10T00:35:24.634Z,99.90
2018-08-10T00:37:53.182Z,99.90
2018-08-10T00:40:23.025Z,99.90
2018-08-10T00:42:51.498Z,99.90
2018-08-10T00:45:20.336Z,99.90
2018-08-10T00:47:49.493Z,99.90
2018-08-10T00:50:18.472Z,99.90
2018-08-10T00:52:47.749Z,99.90
2018-08-10T00:55:17.588Z,99.90
2018-08-10T00:57:46.747Z,99.90
2018-08-10T01:00:19.412Z,99.90
2018-08-10T01:02:51.620Z,99.90
2018-08-10T01:05:20.928Z,99.90
2018-08-10T01:07:49.646Z,99.90
2018-08-10T01:10:19.692Z,99.90
2018-08-10T01:12:48.694Z,99.90
2018-08-10T01:15:18.124Z,99.90
2018-08-10T01:17:47.134Z,99.90
2018-08-10T01:20:22.209Z,99.90
2018-08-10T01:22:56.177Z,99.90
2018-08-10T01:25:25.909Z,99.90
2018-08-10T01:27:59.838Z,99.90
2018-08-10T01:30:31.879Z,99.90
2018-08-10T01:33:01.327Z,99.90
2018-08-10T01:35:30.349Z,99.90
2018-08-10T01:38:00.291Z,99.90
2018-08-10T01:40:30.019Z,99.90
2018-08-10T01:42:58.761Z,99.90
2018-08-10T01:45:27.555Z,99.90
2018-08-10T01:47:56.281Z,99.90
2018-08-10T01:50:24.954Z,99.90
2018-08-10T01:52:53.753Z,99.90
2018-08-10T01:55:22.467Z,99.90
2018-08-10T01:57:51.069Z,99.90
2018-08-10T02:00:19.814Z,99.90
2018-08-10T02:02:48.500Z,99.90
2018-08-10T02:05:17.688Z,99.90
2018-08-10T02:07:46.525Z,99.90
2018-08-10T02:10:17.554Z,99.90
2018-08-10T02:12:51.957Z,99.90
2018-08-10T02:15:21.780Z,99.90
2018-08-10T02:17:50.421Z,99.90
2018-08-10T02:20:22.944Z,99.90
2018-08-10T02:22:52.379Z,99.90
2018-08-10T02:25:22.509Z,99.90
2018-08-10T02:27:55.199Z,99.90
2018-08-10T02:30:35.038Z,99.90
2018-08-10T02:33:03.513Z,99.90
2018-08-10T02:35:32.301Z,99.90
2018-08-10T02:38:01.001Z,99.90
2018-08-10T02:40:29.939Z,99.90
2018-08-10T02:42:58.429Z,99.90
2018-08-10T02:45:26.969Z,99.90
2018-08-10T02:47:55.517Z,99.90
2018-08-10T02:50:24.454Z,99.90
2018-08-10T02:52:53.092Z,99.90
2018-08-10T02:55:21.594Z,99.90
2018-08-10T02:57:50.094Z,99.90
2018-08-10T03:00:19.025Z,99.90
2018-08-10T03:02:47.546Z,99.90
2018-08-10T03:05:16.265Z,99.90
2018-08-10T03:07:44.906Z,99.90
2018-08-10T03:10:14.188Z,99.90
2018-08-10T03:12:42.786Z,99.90
2018-08-10T03:15:13.837Z,99.90
2018-08-10T03:17:43.041Z,99.90
2018-08-10T03:20:11.813Z,99.90
2018-08-10T03:22:40.646Z,99.90
2018-08-10T03:25:10.433Z,99.90
2018-08-10T03:27:39.525Z,99.90
2018-08-10T03:30:09.642Z,99.90
2018-08-10T03:32:38.885Z,99.90
2018-08-10T03:35:07.538Z,99.90
2018-08-10T03:37:36.750Z,99.90
2018-08-10T03:40:06.978Z,99.90
2018-08-10T03:42:36.088Z,99.90
2018-08-10T03:45:05.265Z,99.90
2018-08-10T03:47:33.773Z,99.90
2018-08-10T03:50:02.361Z,99.90
2018-08-10T03:52:30.850Z,99.90
2018-08-10T03:54:59.506Z,99.90
2018-08-10T03:57:28.421Z,99.90
2018-08-10T03:59:56.993Z,99.90
2018-08-10T04:02:26.158Z,99.90
2018-08-10T04:04:54.789Z,99.90
2018-08-10T04:07:23.449Z,99.90
2018-08-10T04:09:52.003Z,99.90
2018-08-10T04:12:20.451Z,99.90
2018-08-10T04:14:49.077Z,99.90
2018-08-10T04:17:22.073Z,99.90
2018-08-10T04:19:51.340Z,99.90
2018-08-10T04:22:19.952Z,99.90
2018-08-10T04:24:48.483Z,99.90
2018-08-10T04:27:17.036Z,99.90
2018-08-10T04:29:45.550Z,99.90
2018-08-10T04:32:14.037Z,99.90
2018-08-10T04:34:42.749Z,99.90
2018-08-10T04:37:11.486Z,99.90
2018-08-10T04:39:40.007Z,99.90
2018-08-10T04:42:08.608Z,99.90
2018-08-10T04:44:37.169Z,99.90
2018-08-10T04:47:05.861Z,99.90
2018-08-10T04:49:34.361Z,99.90
2018-08-10T04:52:02.829Z,99.90
2018-08-10T04:54:31.405Z,99.90
2018-08-10T04:56:59.997Z,99.90
2018-08-10T04:59:28.481Z,99.90
2018-08-10T05:01:57.014Z,99.90
2018-08-10T05:04:25.571Z,99.90
2018-08-10T05:06:54.087Z,99.90
2018-08-10T05:09:22.641Z,99.90
2018-08-10T05:11:51.170Z,99.90
2018-08-10T05:14:19.645Z,99.90
2018-08-10T05:16:48.184Z,99.90
2018-08-10T05:19:16.725Z,99.90
2018-08-10T05:21:45.205Z,99.90
2018-08-10T05:24:13.661Z,99.90
2018-08-10T05:26:42.244Z,99.90
2018-08-10T05:29:10.721Z,99.90
2018-08-10T05:31:39.357Z,99.90
2018-08-10T05:34:07.993Z,99.90
2018-08-10T05:36:36.517Z,99.90
2018-08-10T05:39:07.855Z,99.10
2018-08-10T05:41:36.499Z,98.80
2018-08-10T05:44:05.206Z,97.30
2018-08-10T05:46:33.791Z,99.00
2018-08-10T05:49:02.338Z,97.90
2018-08-10T05:51:30.865Z,96.70
2018-08-10T05:53:59.305Z,97.10
2018-08-10T05:56:27.776Z,97.20
2018-08-10T05:58:56.212Z,96.50
2018-08-10T06:01:24.717Z,97.10
2018-08-10T06:03:53.221Z,96.40
2018-08-10T06:06:21.674Z,95.80
2018-08-10T06:08:50.213Z,94.50
2018-08-10T06:11:18.840Z,95.20
2018-08-10T06:13:47.345Z,95.40
2018-08-10T06:16:15.888Z,95.00
2018-08-10T06:18:44.425Z,93.70
2018-08-10T06:21:12.914Z,95.30
2018-08-10T06:23:41.388Z,93.90
2018-08-10T06:26:09.926Z,95.10
2018-08-10T06:28:38.377Z,93.40
2018-08-10T06:31:06.889Z,92.90
2018-08-10T06:33:35.383Z,92.50
2018-08-10T06:36:03.917Z,92.80
2018-08-10T06:38:32.597Z,93.30
2018-08-10T06:41:01.119Z,93.50
2018-08-10T06:43:29.608Z,92.60
2018-08-10T06:45:58.107Z,93.40
2018-08-10T06:48:26.581Z,93.30
2018-08-10T06:50:55.062Z,93.20
2018-08-10T06:53:23.590Z,93.30
2018-08-10T06:55:52.162Z,93.50
2018-08-10T06:58:20.620Z,93.10
2018-08-10T07:00:49.140Z,93.60
2018-08-10T07:03:17.564Z,93.80
2018-08-10T07:05:46.007Z,92.20
2018-08-10T07:08:14.513Z,92.10
2018-08-10T07:10:43.201Z,92.00
2018-08-10T07:13:11.767Z,91.90
2018-08-10T07:15:40.147Z,91.60
2018-08-10T07:18:08.645Z,92.40
2018-08-10T07:20:37.153Z,92.70
2018-08-10T07:23:05.850Z,93.00
2018-08-10T07:25:34.369Z,93.10
2018-08-10T07:28:03.149Z,92.90
2018-08-10T07:30:32.860Z,93.00
2018-08-10T07:33:01.534Z,92.40
2018-08-10T07:35:29.997Z,91.50
2018-08-10T07:38:00.513Z,90.80
2018-08-10T07:40:29.061Z,91.30
2018-08-10T07:42:57.672Z,91.10
2018-08-10T07:45:26.225Z,90.80
2018-08-10T07:47:54.762Z,90.90
2018-08-10T07:50:23.259Z,90.80
2018-08-10T07:52:51.717Z,90.50
2018-08-10T07:55:20.436Z,88.00
2018-08-10T07:57:48.924Z,86.80
2018-08-10T08:00:17.581Z,86.30
2018-08-10T08:02:46.150Z,84.30
2018-08-10T08:05:14.694Z,81.20
2018-08-10T08:07:43.445Z,81.60
2018-08-10T08:10:11.971Z,81.50
2018-08-10T08:12:40.476Z,82.30
2018-08-10T08:15:09.316Z,88.00
2018-08-10T08:17:37.881Z,93.10
2018-08-10T08:20:06.985Z,96.20
2018-08-10T08:22:35.608Z,97.80
2018-08-10T08:27:32.934Z,97.20
2018-08-10T08:30:01.538Z,96.80
2018-08-10T08:32:30.164Z,97.00
2018-08-10T08:34:58.845Z,93.70
2018-08-10T08:37:27.264Z,92.20
2018-08-10T08:40:16.498Z,85.70
2018-08-10T08:42:46.032Z,85.50
2018-08-10T08:46:17.141Z,84.10
2018-08-10T08:48:46.667Z,83.10
2018-08-10T08:51:16.887Z,84.80
2018-08-10T08:53:45.449Z,80.70
2018-08-10T08:56:17.107Z,81.20
2018-08-10T08:58:46.849Z,83.30
2018-08-10T09:01:15.701Z,82.60
2018-08-10T09:04:56.786Z,83.30
2018-08-10T09:07:26.097Z,83.00
2018-08-10T09:09:54.589Z,80.10
2018-08-10T09:12:23.204Z,78.30
2018-08-10T09:14:59.421Z,80.60
2018-08-10T09:17:28.092Z,79.30
2018-08-10T09:19:56.582Z,75.60
2018-08-10T09:22:25.101Z,75.10
2018-08-10T09:24:53.716Z,71.70
2018-08-10T09:27:22.237Z,71.40
2018-08-10T09:29:50.779Z,68.80
2018-08-10T09:32:19.414Z,68.20
2018-08-10T09:34:47.905Z,70.80
2018-08-10T09:37:16.401Z,70.60
2018-08-10T09:39:44.900Z,71.60
2018-08-10T09:42:13.483Z,72.20
2018-08-10T09:44:41.928Z,73.00
2018-08-10T09:47:10.798Z,70.20
2018-08-10T09:49:42.203Z,70.60
2018-08-10T09:52:10.750Z,69.80
2018-08-10T09:55:25.324Z,66.30
2018-08-10T09:57:55.258Z,65.80
2018-08-10T10:00:29.048Z,65.70
2018-08-10T10:03:02.897Z,63.00
2018-08-10T10:05:31.529Z,64.40
2018-08-10T10:08:00.128Z,63.10
2018-08-10T10:10:28.682Z,60.10
2018-08-10T10:12:57.705Z,60.60
2018-08-10T10:15:26.322Z,59.40
2018-08-10T10:17:54.917Z,61.10
2018-08-10T10:20:23.481Z,61.70
2018-08-10T10:22:52.059Z,59.20
2018-08-10T10:25:20.656Z,58.20
2018-08-10T10:27:49.229Z,58.70
2018-08-10T10:30:17.692Z,58.80
2018-08-10T10:32:46.235Z,58.90
2018-08-10T10:35:14.757Z,58.20
2018-08-10T10:37:43.314Z,57.30
2018-08-10T10:40:12.185Z,57.20
2018-08-10T10:42:40.866Z,56.40
2018-08-10T10:45:12.158Z,56.40
2018-08-10T10:47:41.461Z,57.40
2018-08-10T10:50:10.656Z,56.50
2018-08-10T10:52:39.529Z,56.70
2018-08-10T10:55:08.682Z,57.20
2018-08-10T10:57:37.407Z,57.40
2018-08-10T11:00:08.214Z,57.20
2018-08-10T11:02:36.760Z,57.30
2018-08-10T11:05:05.952Z,57.50
2018-08-10T11:07:35.449Z,58.00
2018-08-10T11:10:05.198Z,57.40
2018-08-10T11:12:33.667Z,57.70
2018-08-10T11:15:02.161Z,57.60
2018-08-10T11:17:30.716Z,56.60
2018-08-10T11:19:59.233Z,56.90
2018-08-10T11:22:27.749Z,57.00
2018-08-10T11:24:56.337Z,56.90
2018-08-10T11:27:24.826Z,55.30
2018-08-10T11:29:53.286Z,55.00
2018-08-10T11:32:21.799Z,55.40
2018-08-10T11:34:50.282Z,55.70
2018-08-10T11:37:18.797Z,55.70
2018-08-10T11:39:47.284Z,54.30
2018-08-10T11:42:15.813Z,54.90
2018-08-10T11:44:44.325Z,53.80
2018-08-10T11:47:12.865Z,53.20
2018-08-10T11:49:41.321Z,53.10
2018-08-10T11:52:09.810Z,52.70
2018-08-10T11:54:38.353Z,53.80
2018-08-10T11:57:06.814Z,53.20
2018-08-10T11:59:35.297Z,53.00
2018-08-10T12:02:03.874Z,52.80
2018-08-10T12:04:32.373Z,52.50
2018-08-10T12:07:00.858Z,53.00
2018-08-10T12:09:29.796Z,54.10
2018-08-10T12:11:58.314Z,54.30
2018-08-10T12:14:26.789Z,55.00
2018-08-10T12:16:55.285Z,50.70
2018-08-10T12:19:23.761Z,50.60
2018-08-10T12:21:52.213Z,51.80
2018-08-10T12:24:20.745Z,52.70
2018-08-10T12:26:49.233Z,52.80
2018-08-10T12:29:17.705Z,54.50
2018-08-10T12:31:46.276Z,53.80
2018-08-10T12:34:14.757Z,55.20
2018-08-10T12:36:43.230Z,53.90
2018-08-10T12:39:13.801Z,53.70
2018-08-10T12:41:42.454Z,54.20
2018-08-10T12:44:11.153Z,54.30
2018-08-10T12:46:39.716Z,55.00
2018-08-10T12:49:08.473Z,54.80
2018-08-10T12:51:36.963Z,54.60
2018-08-10T12:54:05.701Z,52.40
2018-08-10T12:56:34.190Z,51.90
2018-08-10T12:59:02.696Z,51.50
2018-08-10T13:01:31.297Z,52.50
2018-08-10T13:03:59.805Z,53.00
2018-08-10T13:06:28.309Z,53.40
2018-08-10T13:08:56.797Z,53.40
2018-08-10T13:11:25.451Z,53.50
2018-08-10T13:13:53.977Z,52.30
2018-08-10T13:16:22.713Z,52.20
2018-08-10T13:18:51.426Z,52.80
2018-08-10T13:21:19.958Z,51.00
2018-08-10T13:23:48.480Z,49.90
2018-08-10T13:26:17.032Z,50.00
2018-08-10T13:28:45.573Z,50.00
2018-08-10T13:31:14.197Z,51.30
2018-08-10T13:33:42.668Z,50.90
2018-08-10T13:36:11.130Z,50.00
2018-08-10T13:38:39.680Z,49.80
2018-08-10T13:41:08.145Z,50.10
2018-08-10T13:43:36.702Z,49.60
2018-08-10T13:46:05.228Z,49.50
2018-08-10T13:48:33.754Z,48.80
2018-08-10T13:51:02.364Z,49.50
2018-08-10T13:53:30.964Z,49.30
2018-08-10T13:55:59.486Z,48.10
2018-08-10T13:58:27.981Z,47.80
2018-08-10T14:00:56.586Z,49.60
2018-08-10T14:03:25.793Z,49.80
2018-08-10T14:05:54.366Z,49.30
2018-08-10T14:08:22.873Z,48.80
2018-08-10T14:10:51.362Z,49.40
2018-08-10T14:13:19.918Z,48.70
2018-08-10T14:15:49.181Z,47.60
2018-08-10T14:18:17.693Z,48.30
2018-08-10T14:20:46.197Z,48.20
2018-08-10T14:23:14.734Z,46.40
2018-08-10T14:25:43.213Z,47.50
2018-08-10T14:28:12.567Z,48.10
2018-08-10T14:30:41.149Z,48.90
2018-08-10T14:33:09.661Z,48.90
2018-08-10T14:35:38.186Z,47.90
2018-08-10T14:40:59.640Z,47.00
2018-08-10T14:43:28.174Z,47.00
2018-08-10T14:45:56.653Z,48.10
2018-08-10T14:48:25.165Z,47.70
2018-08-10T14:50:53.674Z,48.10
2018-08-10T14:53:22.161Z,48.40
2018-08-10T14:55:50.625Z,48.50
2018-08-10T14:58:19.157Z,48.70
2018-08-10T15:00:47.779Z,48.70
2018-08-10T15:03:16.201Z,48.10
2018-08-10T15:05:44.762Z,49.00
2018-08-10T15:08:13.218Z,48.00
2018-08-10T15:10:41.714Z,46.20
2018-08-10T15:13:10.292Z,47.10
2018-08-10T15:15:38.813Z,46.50
2018-08-10T15:18:08.020Z,46.00
2018-08-10T15:20:36.521Z,45.40
2018-08-10T15:23:05.029Z,44.70
2018-08-10T15:25:33.473Z,44.90
2018-08-10T15:28:02.007Z,45.30
2018-08-10T15:30:30.504Z,46.40
2018-08-10T15:32:58.997Z,45.80
2018-08-10T15:35:56.514Z,45.10
2018-08-10T15:38:25.007Z,46.20
2018-08-10T15:40:53.482Z,46.90
2018-08-10T15:43:22.025Z,46.10
2018-08-10T15:45:50.509Z,43.90
2018-08-10T15:48:18.976Z,43.90
2018-08-10T15:50:47.549Z,43.40
2018-08-10T15:53:16.017Z,43.50
2018-08-10T15:55:44.542Z,44.00
2018-08-10T15:58:13.057Z,44.60
2018-08-10T16:00:41.556Z,43.70
2018-08-10T16:03:10.005Z,43.90
2018-08-10T16:05:38.569Z,45.20
2018-08-10T16:08:07.103Z,44.70
2018-08-10T16:10:35.657Z,44.40
2018-08-10T16:13:04.195Z,44.50
2018-08-10T16:15:32.682Z,45.20
2018-08-10T16:18:01.200Z,45.20
2018-08-10T16:20:29.762Z,44.90
2018-08-10T16:22:58.245Z,44.80
2018-08-10T16:25:26.701Z,45.10
2018-08-10T16:27:55.273Z,44.80
2018-08-10T16:30:23.763Z,45.00
2018-08-10T16:32:52.244Z,46.50
2018-08-10T16:35:20.773Z,49.00
2018-08-10T16:37:49.236Z,50.20
2018-08-10T16:40:18.452Z,50.60
2018-08-10T16:42:47.016Z,50.10
2018-08-10T16:45:15.597Z,50.40
2018-08-10T16:47:44.194Z,51.80
2018-08-10T16:50:14.589Z,53.50
2018-08-10T16:52:43.668Z,54.20
2018-08-10T16:55:17.281Z,54.00
2018-08-10T16:57:46.424Z,53.50
2018-08-10T17:00:17.770Z,52.90
2018-08-10T17:02:46.806Z,54.20
2018-08-10T17:05:15.313Z,54.40
2018-08-10T17:07:43.932Z,53.90
2018-08-10T17:10:12.681Z,54.50
2018-08-10T17:12:42.356Z,55.20
2018-08-10T17:15:16.698Z,55.50
2018-08-10T17:17:46.077Z,55.90
2018-08-10T17:20:15.061Z,55.20
2018-08-10T17:22:44.125Z,55.40
2018-08-10T17:25:14.397Z,55.50
2018-08-10T17:27:42.911Z,55.20
2018-08-10T17:30:13.405Z,54.30
2018-08-10T17:32:41.856Z,54.90
2018-08-10T17:35:11.661Z,55.60
2018-08-10T17:37:40.880Z,55.90
2018-08-10T17:40:10.017Z,55.50
2018-08-10T17:42:39.001Z,55.70
2018-08-10T17:45:11.744Z,55.90
2018-08-10T17:47:40.354Z,56.60
2018-08-10T17:50:13.182Z,56.80
2018-08-10T17:52:43.748Z,56.60
2018-08-10T17:55:12.721Z,56.30
2018-08-10T17:57:41.276Z,55.60
2018-08-10T18:00:12.549Z,55.60
2018-08-10T18:02:41.054Z,56.10
2018-08-10T18:05:11.590Z,56.70
2018-08-10T18:07:40.249Z,57.00
2018-08-10T18:10:09.601Z,57.60
2018-08-10T18:12:39.158Z,58.10
2018-08-10T18:15:09.780Z,58.50
2018-08-10T18:17:39.092Z,58.50
2018-08-10T18:20:10.489Z,58.60
2018-08-10T18:22:39.096Z,58.70
2018-08-10T18:25:09.351Z,58.50
2018-08-10T18:27:38.707Z,58.90
2018-08-10T18:30:10.442Z,59.30
2018-08-10T18:32:39.431Z,60.70
2018-08-10T18:35:08.793Z,60.50
2018-08-10T18:37:38.445Z,61.00
2018-08-10T18:40:07.749Z,61.20
2018-08-10T18:42:36.232Z,61.20
2018-08-10T18:45:05.557Z,61.70
2018-08-10T18:47:34.146Z,62.50
2018-08-10T18:50:02.776Z,62.80
2018-08-10T18:52:31.282Z,63.40
2018-08-10T18:54:59.931Z,64.00
2018-08-10T18:57:28.404Z,64.40
2018-08-10T18:59:56.869Z,64.80
2018-08-10T19:02:25.404Z,64.70
2018-08-10T19:04:54.009Z,64.00
2018-08-10T19:07:22.500Z,62.80
2018-08-10T19:09:51.109Z,61.00
2018-08-10T19:12:19.602Z,59.80
2018-08-10T19:14:48.073Z,59.70
2018-08-10T19:17:16.659Z,59.90
2018-08-10T19:19:45.150Z,60.20
2018-08-10T19:22:13.678Z,60.50
2018-08-10T19:24:42.240Z,59.70
2018-08-10T19:27:10.726Z,59.30
2018-08-10T19:29:39.293Z,58.80
2018-08-10T19:32:07.838Z,58.90
2018-08-10T19:34:36.320Z,59.10
2018-08-10T19:37:04.858Z,59.10
2018-08-10T19:39:33.421Z,59.20
2018-08-10T19:42:01.921Z,59.50
2018-08-10T19:44:30.413Z,60.00
2018-08-10T19:46:59.039Z,60.70
2018-08-10T19:49:27.518Z,61.30
2018-08-10T19:51:55.985Z,61.60
2018-08-10T19:54:24.512Z,62.00
2018-08-10T19:56:53.210Z,62.00
2018-08-10T19:59:21.705Z,62.50
2018-08-10T20:01:50.350Z,62.90
2018-08-10T20:04:18.789Z,63.50
2018-08-10T20:06:47.245Z,64.00
2018-08-10T20:09:15.777Z,63.80
2018-08-10T20:11:44.233Z,64.20
2018-08-10T20:14:12.692Z,64.70
2018-08-10T20:16:41.217Z,65.70
2018-08-10T20:19:09.689Z,66.30
2018-08-10T20:21:38.245Z,67.00
2018-08-10T20:24:06.805Z,67.40
2018-08-10T20:26:35.289Z,67.70
2018-08-10T20:29:03.830Z,67.80
2018-08-10T20:31:32.429Z,68.00
2018-08-10T20:34:00.931Z,68.10
2018-08-10T20:36:29.465Z,68.30
2018-08-10T20:38:58.060Z,68.40
2018-08-10T20:41:26.648Z,68.80
2018-08-10T20:43:55.136Z,69.10
2018-08-10T20:46:23.677Z,69.00
2018-08-10T20:48:52.153Z,68.70
2018-08-10T20:51:20.757Z,68.40
2018-08-10T20:53:49.294Z,68.80
2018-08-10T20:56:17.749Z,69.10
2018-08-10T20:58:46.206Z,68.70
2018-08-10T21:01:14.796Z,68.10
2018-08-10T21:03:43.291Z,68.20
2018-08-10T21:06:11.793Z,68.60
2018-08-10T21:08:40.253Z,68.50
2018-08-10T21:11:08.717Z,68.30
2018-08-10T21:13:37.172Z,68.10
2018-08-10T21:16:05.973Z,68.20
2018-08-10T21:18:34.430Z,68.60
2018-08-10T21:21:02.957Z,68.80
2018-08-10T21:23:32.787Z,69.10
2018-08-10T21:26:01.269Z,69.70
2018-08-10T21:28:29.765Z,69.90
2018-08-10T21:30:58.449Z,69.70
2018-08-10T21:33:26.925Z,70.20
2018-08-10T21:35:55.406Z,70.60
2018-08-10T21:38:23.944Z,70.80
2018-08-10T21:40:52.441Z,71.10
2018-08-10T21:43:20.996Z,71.40
2018-08-10T21:45:49.445Z,71.30
2018-08-10T21:48:17.914Z,71.20
2018-08-10T21:50:46.375Z,71.50
2018-08-10T21:53:14.961Z,71.60
2018-08-10T21:55:43.466Z,71.70
2018-08-10T21:58:11.990Z,71.80
2018-08-10T22:00:50.685Z,71.80
2018-08-10T22:03:19.874Z,72.10
2018-08-10T22:05:48.813Z,71.60
2018-08-10T22:08:18.350Z,71.40
2018-08-10T22:10:47.340Z,71.10
2018-08-10T22:13:21.086Z,71.70
2018-08-10T22:15:54.839Z,72.20
2018-08-10T22:18:28.734Z,72.30
2018-08-10T22:20:57.639Z,72.50
2018-08-10T22:23:27.252Z,73.00
2018-08-10T22:25:56.413Z,73.30
2018-08-10T22:28:24.943Z,74.00
2018-08-10T22:30:53.413Z,74.50
2018-08-10T22:33:21.967Z,75.00
2018-08-10T22:35:50.415Z,75.90
2018-08-10T22:38:18.848Z,75.70
2018-08-10T22:40:47.341Z,76.30
2018-08-10T22:43:15.785Z,76.90
2018-08-10T22:45:44.260Z,77.40
2018-08-10T22:48:12.795Z,77.80
2018-08-10T22:50:41.377Z,78.30
2018-08-10T22:53:09.961Z,78.50
2018-08-10T22:55:38.585Z,79.00
2018-08-10T22:58:07.093Z,79.90
2018-08-10T23:00:35.579Z,80.50
2018-08-10T23:03:04.177Z,80.80
2018-08-10T23:05:32.672Z,81.30
2018-08-10T23:08:01.215Z,81.70
2018-08-10T23:10:29.735Z,82.20
2018-08-10T23:12:58.237Z,82.70
2018-08-10T23:15:26.829Z,82.80
2018-08-10T23:17:55.398Z,83.40
2018-08-10T23:20:24.004Z,83.80
2018-08-10T23:22:52.449Z,84.00
2018-08-10T23:25:20.981Z,84.50
2018-08-10T23:27:49.574Z,84.80
2018-08-10T23:30:18.045Z,85.10
2018-08-10T23:32:46.656Z,85.60
2018-08-10T23:35:15.166Z,86.40
2018-08-10T23:37:44.189Z,86.90
2018-08-10T23:40:14.859Z,88.10
2018-08-10T23:42:43.817Z,89.50
2018-08-10T23:45:13.522Z,90.30
2018-08-10T23:47:42.848Z,90.90
2018-08-10T23:50:13.384Z,91.70
2018-08-10T23:52:42.133Z,92.30
2018-08-10T23:55:11.445Z,93.00
2018-08-10T23:57:41.011Z,93.70
